sensor_id;sensor_type;location;lat;lon;timestamp;temperature;humidity
3298;DHT22;1661;53.572;10.174;2024-03-25T00:01:28;7.20;89.40
3298;DHT22;1661;53.572;10.174;2024-03-25T00:03:54;7.10;89.10
3298;DHT22;1661;53.572;10.174;2024-03-25T00:06:22;7.10;89.10
3298;DHT22;1661;53.572;10.174;2024-03-25T00:08:47;7.00;88.90
3298;DHT22;1661;53.572;10.174;2024-03-25T00:11:14;7.10;89.10
3298;DHT22;1661;53.572;10.174;2024-03-25T00:13:40;7.10;88.70
3298;DHT22;1661;53.572;10.174;2024-03-25T00:16:08;6.90;89.10
3298;DHT22;1661;53.572;10.174;2024-03-25T00:18:35;7.00;89.10
3298;DHT22;1661;53.572;10.174;2024-03-25T00:21:02;7.00;89.00
3298;DHT22;1661;53.572;10.174;2024-03-25T00:23:28;6.90;88.90
3298;DHT22;1661;53.572;10.174;2024-03-25T00:25:55;7.00;88.70
3298;DHT22;1661;53.572;10.174;2024-03-25T00:28:21;7.00;88.30
3298;DHT22;1661;53.572;10.174;2024-03-25T00:30:47;7.00;88.70
3298;DHT22;1661;53.572;10.174;2024-03-25T00:33:13;7.10;88.50
3298;DHT22;1661;53.572;10.174;2024-03-25T00:35:43;7.10;87.70
3298;DHT22;1661;53.572;10.174;2024-03-25T00:38:11;7.00;88.00
3298;DHT22;1661;53.572;10.174;2024-03-25T00:40:37;7.00;88.20
3298;DHT22;1661;53.572;10.174;2024-03-25T00:43:04;7.00;88.30
3298;DHT22;1661;53.572;10.174;2024-03-25T00:45:29;7.00;88.00
3298;DHT22;1661;53.572;10.174;2024-03-25T00:47:58;7.00;88.10
3298;DHT22;1661;53.572;10.174;2024-03-25T00:50:25;7.00;88.30
3298;DHT22;1661;53.572;10.174;2024-03-25T00:52:53;6.90;88.70
3298;DHT22;1661;53.572;10.174;2024-03-25T00:55:19;6.90;89.00
3298;DHT22;1661;53.572;10.174;2024-03-25T00:57:46;7.00;88.70
3298;DHT22;1661;53.572;10.174;2024-03-25T01:00:14;6.90;89.20
3298;DHT22;1661;53.572;10.174;2024-03-25T01:02:41;6.90;89.20
3298;DHT22;1661;53.572;10.174;2024-03-25T01:05:07;6.90;89.30
3298;DHT22;1661;53.572;10.174;2024-03-25T01:07:34;7.00;89.30
3298;DHT22;1661;53.572;10.174;2024-03-25T01:10:02;7.00;89.30
3298;DHT22;1661;53.572;10.174;2024-03-25T01:12:28;6.90;89.70
3298;DHT22;1661;53.572;10.174;2024-03-25T01:14:54;6.90;89.90
3298;DHT22;1661;53.572;10.174;2024-03-25T01:17:21;6.80;90.70
3298;DHT22;1661;53.572;10.174;2024-03-25T01:19:47;6.90;90.70
3298;DHT22;1661;53.572;10.174;2024-03-25T01:22:13;7.00;90.70
3298;DHT22;1661;53.572;10.174;2024-03-25T01:24:39;6.90;90.80
3298;DHT22;1661;53.572;10.174;2024-03-25T01:27:08;7.10;90.70
3298;DHT22;1661;53.572;10.174;2024-03-25T01:29:33;7.20;90.50
3298;DHT22;1661;53.572;10.174;2024-03-25T01:32:00;7.10;90.40
3298;DHT22;1661;53.572;10.174;2024-03-25T01:34:28;7.30;90.20
3298;DHT22;1661;53.572;10.174;2024-03-25T01:36:54;7.30;89.90
3298;DHT22;1661;53.572;10.174;2024-03-25T01:39:20;7.30;89.60
3298;DHT22;1661;53.572;10.174;2024-03-25T01:41:47;7.20;89.80
3298;DHT22;1661;53.572;10.174;2024-03-25T01:44:15;7.20;90.30
3298;DHT22;1661;53.572;10.174;2024-03-25T01:46:41;7.30;90.30
3298;DHT22;1661;53.572;10.174;2024-03-25T01:49:08;7.20;90.10
3298;DHT22;1661;53.572;10.174;2024-03-25T01:51:36;7.10;90.60
3298;DHT22;1661;53.572;10.174;2024-03-25T01:54:03;7.20;90.60
3298;DHT22;1661;53.572;10.174;2024-03-25T01:56:32;7.20;90.50
3298;DHT22;1661;53.572;10.174;2024-03-25T01:58:59;7.30;90.40
3298;DHT22;1661;53.572;10.174;2024-03-25T02:01:27;7.40;90.00
3298;DHT22;1661;53.572;10.174;2024-03-25T02:03:54;7.30;90.00
3298;DHT22;1661;53.572;10.174;2024-03-25T02:06:22;7.40;89.70
3298;DHT22;1661;53.572;10.174;2024-03-25T02:08:49;7.50;89.70
3298;DHT22;1661;53.572;10.174;2024-03-25T02:11:17;7.50;89.40
3298;DHT22;1661;53.572;10.174;2024-03-25T02:13:43;7.50;89.20
3298;DHT22;1661;53.572;10.174;2024-03-25T02:16:10;7.60;89.20
3298;DHT22;1661;53.572;10.174;2024-03-25T02:18:38;7.60;89.00
3298;DHT22;1661;53.572;10.174;2024-03-25T02:21:05;7.60;88.80
3298;DHT22;1661;53.572;10.174;2024-03-25T02:23:32;7.50;89.00
3298;DHT22;1661;53.572;10.174;2024-03-25T02:26:01;7.50;89.00
3298;DHT22;1661;53.572;10.174;2024-03-25T02:28:27;7.50;88.90
3298;DHT22;1661;53.572;10.174;2024-03-25T02:30:54;7.60;88.90
3298;DHT22;1661;53.572;10.174;2024-03-25T02:33:20;7.50;88.20
3298;DHT22;1661;53.572;10.174;2024-03-25T02:35:47;7.40;88.40
3298;DHT22;1661;53.572;10.174;2024-03-25T02:38:13;7.50;88.50
3298;DHT22;1661;53.572;10.174;2024-03-25T02:40:41;7.40;88.30
3298;DHT22;1661;53.572;10.174;2024-03-25T02:43:09;7.40;88.20
3298;DHT22;1661;53.572;10.174;2024-03-25T02:45:37;7.30;88.20
3298;DHT22;1661;53.572;10.174;2024-03-25T02:48:04;7.20;88.60
3298;DHT22;1661;53.572;10.174;2024-03-25T02:50:31;7.10;88.50
3298;DHT22;1661;53.572;10.174;2024-03-25T02:52:56;7.10;88.90
3298;DHT22;1661;53.572;10.174;2024-03-25T02:55:23;7.00;89.00
3298;DHT22;1661;53.572;10.174;2024-03-25T02:57:49;7.00;89.20
3298;DHT22;1661;53.572;10.174;2024-03-25T03:00:17;7.00;89.00
3298;DHT22;1661;53.572;10.174;2024-03-25T03:02:43;7.10;88.60
3298;DHT22;1661;53.572;10.174;2024-03-25T03:05:10;7.10;88.40
3298;DHT22;1661;53.572;10.174;2024-03-25T03:07:36;6.90;88.00
3298;DHT22;1661;53.572;10.174;2024-03-25T03:10:03;6.90;88.10
3298;DHT22;1661;53.572;10.174;2024-03-25T03:12:28;7.00;88.10
3298;DHT22;1661;53.572;10.174;2024-03-25T03:14:55;6.90;87.80
3298;DHT22;1661;53.572;10.174;2024-03-25T03:17:22;7.00;87.60
3298;DHT22;1661;53.572;10.174;2024-03-25T03:19:49;7.10;87.50
3298;DHT22;1661;53.572;10.174;2024-03-25T03:22:15;7.10;87.10
3298;DHT22;1661;53.572;10.174;2024-03-25T03:24:42;7.00;87.30
3298;DHT22;1661;53.572;10.174;2024-03-25T03:27:08;6.90;87.50
3298;DHT22;1661;53.572;10.174;2024-03-25T03:29:34;7.00;87.80
3298;DHT22;1661;53.572;10.174;2024-03-25T03:32:00;7.00;88.00
3298;DHT22;1661;53.572;10.174;2024-03-25T03:34:29;7.00;88.10
3298;DHT22;1661;53.572;10.174;2024-03-25T03:36:55;7.10;88.10
3298;DHT22;1661;53.572;10.174;2024-03-25T03:39:22;6.90;89.00
3298;DHT22;1661;53.572;10.174;2024-03-25T03:41:48;6.90;89.30
3298;DHT22;1661;53.572;10.174;2024-03-25T03:44:14;6.90;89.40
3298;DHT22;1661;53.572;10.174;2024-03-25T03:46:40;6.90;89.30
3298;DHT22;1661;53.572;10.174;2024-03-25T03:49:07;6.80;89.60
3298;DHT22;1661;53.572;10.174;2024-03-25T03:51:34;6.80;89.80
3298;DHT22;1661;53.572;10.174;2024-03-25T03:54:01;6.80;89.80
3298;DHT22;1661;53.572;10.174;2024-03-25T03:56:27;6.80;89.90
3298;DHT22;1661;53.572;10.174;2024-03-25T03:58:54;6.80;89.80
3298;DHT22;1661;53.572;10.174;2024-03-25T04:01:19;6.90;89.90
3298;DHT22;1661;53.572;10.174;2024-03-25T04:03:46;6.90;89.80
3298;DHT22;1661;53.572;10.174;2024-03-25T04:06:13;6.90;89.50
3298;DHT22;1661;53.572;10.174;2024-03-25T04:08:41;7.00;89.40
3298;DHT22;1661;53.572;10.174;2024-03-25T04:11:07;6.90;89.20
3298;DHT22;1661;53.572;10.174;2024-03-25T04:13:35;7.00;89.20
3298;DHT22;1661;53.572;10.174;2024-03-25T04:16:02;7.00;89.00
3298;DHT22;1661;53.572;10.174;2024-03-25T04:18:30;7.10;88.90
3298;DHT22;1661;53.572;10.174;2024-03-25T04:20:56;7.20;88.70
3298;DHT22;1661;53.572;10.174;2024-03-25T04:23:23;7.10;88.00
3298;DHT22;1661;53.572;10.174;2024-03-25T04:25:50;7.10;88.00
3298;DHT22;1661;53.572;10.174;2024-03-25T04:28:17;7.20;88.10
3298;DHT22;1661;53.572;10.174;2024-03-25T04:30:43;7.10;87.70
3298;DHT22;1661;53.572;10.174;2024-03-25T04:33:10;7.10;87.60
3298;DHT22;1661;53.572;10.174;2024-03-25T04:35:36;7.00;87.70
3298;DHT22;1661;53.572;10.174;2024-03-25T04:38:03;6.90;87.90
3298;DHT22;1661;53.572;10.174;2024-03-25T04:40:29;6.90;88.10
3298;DHT22;1661;53.572;10.174;2024-03-25T04:42:56;7.00;88.00
3298;DHT22;1661;53.572;10.174;2024-03-25T04:45:22;7.00;87.70
3298;DHT22;1661;53.572;10.174;2024-03-25T04:47:48;7.10;87.50
3298;DHT22;1661;53.572;10.174;2024-03-25T04:50:14;7.10;86.60
3298;DHT22;1661;53.572;10.174;2024-03-25T04:52:39;7.10;86.50
3298;DHT22;1661;53.572;10.174;2024-03-25T04:55:06;7.20;86.50
3298;DHT22;1661;53.572;10.174;2024-03-25T04:57:32;7.20;86.20
3298;DHT22;1661;53.572;10.174;2024-03-25T04:59:59;7.00;85.40
3298;DHT22;1661;53.572;10.174;2024-03-25T05:02:25;7.00;85.80
3298;DHT22;1661;53.572;10.174;2024-03-25T05:04:50;7.00;85.50
3298;DHT22;1661;53.572;10.174;2024-03-25T05:07:16;7.10;85.50
3298;DHT22;1661;53.572;10.174;2024-03-25T05:09:42;7.10;85.20
3298;DHT22;1661;53.572;10.174;2024-03-25T05:12:08;7.20;85.00
3298;DHT22;1661;53.572;10.174;2024-03-25T05:14:34;7.20;84.40
3298;DHT22;1661;53.572;10.174;2024-03-25T05:17:01;7.20;84.30
3298;DHT22;1661;53.572;10.174;2024-03-25T05:19:27;7.10;84.30
3298;DHT22;1661;53.572;10.174;2024-03-25T05:21:53;7.10;84.10
3298;DHT22;1661;53.572;10.174;2024-03-25T05:24:19;7.20;84.20
3298;DHT22;1661;53.572;10.174;2024-03-25T05:26:45;7.20;83.90
3298;DHT22;1661;53.572;10.174;2024-03-25T05:29:10;6.90;84.20
3298;DHT22;1661;53.572;10.174;2024-03-25T05:31:37;6.90;84.80
3298;DHT22;1661;53.572;10.174;2024-03-25T05:34:04;7.00;85.00
3298;DHT22;1661;53.572;10.174;2024-03-25T05:36:30;7.10;85.00
3298;DHT22;1661;53.572;10.174;2024-03-25T05:38:56;7.10;84.80
3298;DHT22;1661;53.572;10.174;2024-03-25T05:41:21;7.10;84.60
3298;DHT22;1661;53.572;10.174;2024-03-25T05:43:47;7.10;84.70
3298;DHT22;1661;53.572;10.174;2024-03-25T05:46:13;7.10;84.80
3298;DHT22;1661;53.572;10.174;2024-03-25T05:48:39;7.20;84.90
3298;DHT22;1661;53.572;10.174;2024-03-25T05:51:06;7.20;84.90
3298;DHT22;1661;53.572;10.174;2024-03-25T05:53:34;7.20;84.90
3298;DHT22;1661;53.572;10.174;2024-03-25T05:56:00;7.20;85.00
3298;DHT22;1661;53.572;10.174;2024-03-25T05:58:26;7.30;85.00
3298;DHT22;1661;53.572;10.174;2024-03-25T06:00:52;7.30;84.90
3298;DHT22;1661;53.572;10.174;2024-03-25T06:03:19;7.30;84.90
3298;DHT22;1661;53.572;10.174;2024-03-25T06:05:45;7.40;84.90
3298;DHT22;1661;53.572;10.174;2024-03-25T06:08:12;7.40;84.70
3298;DHT22;1661;53.572;10.174;2024-03-25T06:10:41;7.40;84.70
3298;DHT22;1661;53.572;10.174;2024-03-25T06:13:07;7.40;84.40
3298;DHT22;1661;53.572;10.174;2024-03-25T06:15:33;7.40;84.60
3298;DHT22;1661;53.572;10.174;2024-03-25T06:17:59;7.40;84.60
3298;DHT22;1661;53.572;10.174;2024-03-25T06:20:25;7.40;84.60
3298;DHT22;1661;53.572;10.174;2024-03-25T06:22:51;7.40;84.60
3298;DHT22;1661;53.572;10.174;2024-03-25T06:25:18;7.50;84.40
3298;DHT22;1661;53.572;10.174;2024-03-25T06:27:44;7.40;84.40
3298;DHT22;1661;53.572;10.174;2024-03-25T06:30:10;7.40;84.30
3298;DHT22;1661;53.572;10.174;2024-03-25T06:32:55;7.50;84.40
3298;DHT22;1661;53.572;10.174;2024-03-25T06:35:39;7.50;84.10
3298;DHT22;1661;53.572;10.174;2024-03-25T06:38:07;7.60;84.00
3298;DHT22;1661;53.572;10.174;2024-03-25T06:40:34;7.50;84.10
3298;DHT22;1661;53.572;10.174;2024-03-25T06:43:00;7.40;84.20
3298;DHT22;1661;53.572;10.174;2024-03-25T06:45:26;7.40;84.40
3298;DHT22;1661;53.572;10.174;2024-03-25T06:47:52;7.40;84.40
3298;DHT22;1661;53.572;10.174;2024-03-25T06:50:18;7.50;84.70
3298;DHT22;1661;53.572;10.174;2024-03-25T06:52:44;7.60;84.60
3298;DHT22;1661;53.572;10.174;2024-03-25T06:55:10;7.70;84.70
3298;DHT22;1661;53.572;10.174;2024-03-25T06:57:37;7.70;84.50
3298;DHT22;1661;53.572;10.174;2024-03-25T07:00:03;7.80;84.50
3298;DHT22;1661;53.572;10.174;2024-03-25T07:02:29;7.80;84.50
3298;DHT22;1661;53.572;10.174;2024-03-25T07:04:55;7.90;84.40
3298;DHT22;1661;53.572;10.174;2024-03-25T07:07:21;7.90;84.20
3298;DHT22;1661;53.572;10.174;2024-03-25T07:09:47;7.90;83.90
3298;DHT22;1661;53.572;10.174;2024-03-25T07:12:13;8.00;84.20
3298;DHT22;1661;53.572;10.174;2024-03-25T07:14:40;8.00;83.60
3298;DHT22;1661;53.572;10.174;2024-03-25T07:17:06;7.80;83.00
3298;DHT22;1661;53.572;10.174;2024-03-25T07:19:32;7.70;83.10
3298;DHT22;1661;53.572;10.174;2024-03-25T07:21:58;7.60;83.30
3298;DHT22;1661;53.572;10.174;2024-03-25T07:24:23;7.50;83.70
3298;DHT22;1661;53.572;10.174;2024-03-25T07:26:49;7.50;84.10
3298;DHT22;1661;53.572;10.174;2024-03-25T07:29:15;7.50;84.10
3298;DHT22;1661;53.572;10.174;2024-03-25T07:31:42;7.50;84.30
3298;DHT22;1661;53.572;10.174;2024-03-25T07:34:08;7.60;84.60
3298;DHT22;1661;53.572;10.174;2024-03-25T07:36:35;7.70;84.70
3298;DHT22;1661;53.572;10.174;2024-03-25T07:39:00;7.80;84.80
3298;DHT22;1661;53.572;10.174;2024-03-25T07:41:26;7.90;84.40
3298;DHT22;1661;53.572;10.174;2024-03-25T07:43:52;7.90;84.00
3298;DHT22;1661;53.572;10.174;2024-03-25T07:46:18;7.90;83.80
3298;DHT22;1661;53.572;10.174;2024-03-25T07:48:45;7.90;83.80
3298;DHT22;1661;53.572;10.174;2024-03-25T07:51:11;7.90;83.00
3298;DHT22;1661;53.572;10.174;2024-03-25T07:53:37;7.80;83.50
3298;DHT22;1661;53.572;10.174;2024-03-25T07:56:03;7.80;84.20
3298;DHT22;1661;53.572;10.174;2024-03-25T07:58:29;7.90;83.90
3298;DHT22;1661;53.572;10.174;2024-03-25T08:00:55;7.90;84.00
3298;DHT22;1661;53.572;10.174;2024-03-25T08:03:21;7.90;83.70
3298;DHT22;1661;53.572;10.174;2024-03-25T08:05:49;8.00;83.50
3298;DHT22;1661;53.572;10.174;2024-03-25T08:08:15;8.20;83.60
3298;DHT22;1661;53.572;10.174;2024-03-25T08:10:41;8.20;83.20
3298;DHT22;1661;53.572;10.174;2024-03-25T08:13:06;8.20;82.80
3298;DHT22;1661;53.572;10.174;2024-03-25T08:15:32;8.30;82.50
3298;DHT22;1661;53.572;10.174;2024-03-25T08:17:58;8.20;81.20
3298;DHT22;1661;53.572;10.174;2024-03-25T08:20:24;8.10;82.30
3298;DHT22;1661;53.572;10.174;2024-03-25T08:22:51;8.20;82.70
3298;DHT22;1661;53.572;10.174;2024-03-25T08:25:17;8.20;82.30
3298;DHT22;1661;53.572;10.174;2024-03-25T08:27:43;8.30;82.50
3298;DHT22;1661;53.572;10.174;2024-03-25T08:30:10;8.20;82.10
3298;DHT22;1661;53.572;10.174;2024-03-25T08:32:36;8.30;82.30
3298;DHT22;1661;53.572;10.174;2024-03-25T08:35:02;8.30;81.80
3298;DHT22;1661;53.572;10.174;2024-03-25T08:37:28;8.30;82.00
3298;DHT22;1661;53.572;10.174;2024-03-25T08:39:55;8.40;82.00
3298;DHT22;1661;53.572;10.174;2024-03-25T08:42:21;8.30;82.10
3298;DHT22;1661;53.572;10.174;2024-03-25T08:44:47;8.40;82.50
3298;DHT22;1661;53.572;10.174;2024-03-25T08:47:13;8.40;82.30
3298;DHT22;1661;53.572;10.174;2024-03-25T08:49:39;8.40;82.60
3298;DHT22;1661;53.572;10.174;2024-03-25T08:52:05;8.40;81.60
3298;DHT22;1661;53.572;10.174;2024-03-25T08:54:31;8.10;81.70
3298;DHT22;1661;53.572;10.174;2024-03-25T08:56:58;7.90;82.60
3298;DHT22;1661;53.572;10.174;2024-03-25T08:59:24;8.00;83.40
3298;DHT22;1661;53.572;10.174;2024-03-25T09:01:50;8.20;83.90
3298;DHT22;1661;53.572;10.174;2024-03-25T09:04:16;8.30;84.00
3298;DHT22;1661;53.572;10.174;2024-03-25T09:06:42;8.50;83.70
3298;DHT22;1661;53.572;10.174;2024-03-25T09:09:07;8.60;83.60
3298;DHT22;1661;53.572;10.174;2024-03-25T09:11:52;8.70;83.10
3298;DHT22;1661;53.572;10.174;2024-03-25T09:14:19;8.90;82.60
3298;DHT22;1661;53.572;10.174;2024-03-25T09:16:45;9.00;81.60
3298;DHT22;1661;53.572;10.174;2024-03-25T09:19:11;9.10;81.60
3298;DHT22;1661;53.572;10.174;2024-03-25T09:21:36;9.10;81.00
3298;DHT22;1661;53.572;10.174;2024-03-25T09:24:03;9.20;81.30
3298;DHT22;1661;53.572;10.174;2024-03-25T09:26:28;9.10;80.70
3298;DHT22;1661;53.572;10.174;2024-03-25T09:28:54;9.00;79.80
3298;DHT22;1661;53.572;10.174;2024-03-25T09:31:22;8.90;80.50
3298;DHT22;1661;53.572;10.174;2024-03-25T09:33:47;8.90;80.40
3298;DHT22;1661;53.572;10.174;2024-03-25T09:36:13;8.90;79.60
3298;DHT22;1661;53.572;10.174;2024-03-25T09:38:39;8.90;79.10
3298;DHT22;1661;53.572;10.174;2024-03-25T09:41:05;9.10;79.70
3298;DHT22;1661;53.572;10.174;2024-03-25T09:43:39;9.30;80.00
3298;DHT22;1661;53.572;10.174;2024-03-25T09:46:07;9.50;79.60
3298;DHT22;1661;53.572;10.174;2024-03-25T09:48:35;9.70;79.70
3298;DHT22;1661;53.572;10.174;2024-03-25T09:51:02;9.80;76.20
3298;DHT22;1661;53.572;10.174;2024-03-25T09:53:28;9.90;75.20
3298;DHT22;1661;53.572;10.174;2024-03-25T09:55:56;10.00;75.00
3298;DHT22;1661;53.572;10.174;2024-03-25T09:58:24;10.10;73.30
3298;DHT22;1661;53.572;10.174;2024-03-25T10:00:50;10.10;72.70
3298;DHT22;1661;53.572;10.174;2024-03-25T10:03:16;10.00;72.50
3298;DHT22;1661;53.572;10.174;2024-03-25T10:05:44;10.10;72.30
3298;DHT22;1661;53.572;10.174;2024-03-25T10:08:10;10.00;70.90
3298;DHT22;1661;53.572;10.174;2024-03-25T10:10:36;10.00;72.00
3298;DHT22;1661;53.572;10.174;2024-03-25T10:13:03;9.90;70.90
3298;DHT22;1661;53.572;10.174;2024-03-25T10:15:28;9.90;71.90
3298;DHT22;1661;53.572;10.174;2024-03-25T10:17:54;9.90;71.00
3298;DHT22;1661;53.572;10.174;2024-03-25T10:20:20;9.70;73.00
3298;DHT22;1661;53.572;10.174;2024-03-25T10:22:48;9.90;74.00
3298;DHT22;1661;53.572;10.174;2024-03-25T10:25:21;10.00;73.60
3298;DHT22;1661;53.572;10.174;2024-03-25T10:27:54;10.10;74.10
3298;DHT22;1661;53.572;10.174;2024-03-25T10:30:21;9.90;73.20
3298;DHT22;1661;53.572;10.174;2024-03-25T10:32:57;9.60;74.80
3298;DHT22;1661;53.572;10.174;2024-03-25T10:35:26;9.60;75.90
3298;DHT22;1661;53.572;10.174;2024-03-25T10:37:58;9.60;74.40
3298;DHT22;1661;53.572;10.174;2024-03-25T10:40:26;9.60;74.20
3298;DHT22;1661;53.572;10.174;2024-03-25T10:43:00;9.70;75.60
3298;DHT22;1661;53.572;10.174;2024-03-25T10:45:28;9.90;75.90
3298;DHT22;1661;53.572;10.174;2024-03-25T10:47:57;10.00;74.00
3298;DHT22;1661;53.572;10.174;2024-03-25T10:50:28;10.20;73.90
3298;DHT22;1661;53.572;10.174;2024-03-25T10:52:57;10.40;73.60
3298;DHT22;1661;53.572;10.174;2024-03-25T10:55:24;10.60;71.90
3298;DHT22;1661;53.572;10.174;2024-03-25T10:57:52;10.80;71.70
3298;DHT22;1661;53.572;10.174;2024-03-25T11:00:22;11.00;71.90
3298;DHT22;1661;53.572;10.174;2024-03-25T11:02:48;11.20;70.90
3298;DHT22;1661;53.572;10.174;2024-03-25T11:05:15;11.50;69.80
3298;DHT22;1661;53.572;10.174;2024-03-25T11:07:41;11.80;68.90
3298;DHT22;1661;53.572;10.174;2024-03-25T11:10:09;12.00;67.00
3298;DHT22;1661;53.572;10.174;2024-03-25T11:12:36;12.30;66.00
3298;DHT22;1661;53.572;10.174;2024-03-25T11:15:03;12.40;65.20
3298;DHT22;1661;53.572;10.174;2024-03-25T11:17:29;12.40;64.00
3298;DHT22;1661;53.572;10.174;2024-03-25T11:20:06;12.20;64.70
3298;DHT22;1661;53.572;10.174;2024-03-25T11:22:33;12.00;65.00
3298;DHT22;1661;53.572;10.174;2024-03-25T11:25:05;11.90;65.40
3298;DHT22;1661;53.572;10.174;2024-03-25T11:27:36;11.90;65.60
3298;DHT22;1661;53.572;10.174;2024-03-25T11:30:02;11.60;65.70
3298;DHT22;1661;53.572;10.174;2024-03-25T11:32:28;11.50;66.00
3298;DHT22;1661;53.572;10.174;2024-03-25T11:34:55;11.30;65.10
3298;DHT22;1661;53.572;10.174;2024-03-25T11:37:21;11.30;64.80
3298;DHT22;1661;53.572;10.174;2024-03-25T11:39:47;11.10;62.90
3298;DHT22;1661;53.572;10.174;2024-03-25T11:42:13;10.90;64.00
3298;DHT22;1661;53.572;10.174;2024-03-25T11:44:40;10.80;64.70
3298;DHT22;1661;53.572;10.174;2024-03-25T11:47:07;10.50;64.20
3298;DHT22;1661;53.572;10.174;2024-03-25T11:49:33;10.60;67.00
3298;DHT22;1661;53.572;10.174;2024-03-25T11:51:59;10.50;66.30
3298;DHT22;1661;53.572;10.174;2024-03-25T11:54:27;10.20;67.70
3298;DHT22;1661;53.572;10.174;2024-03-25T11:56:54;10.20;65.20
3298;DHT22;1661;53.572;10.174;2024-03-25T11:59:20;10.30;66.00
3298;DHT22;1661;53.572;10.174;2024-03-25T12:01:47;10.30;63.80
3298;DHT22;1661;53.572;10.174;2024-03-25T12:04:17;10.30;65.60
3298;DHT22;1661;53.572;10.174;2024-03-25T12:06:43;10.40;64.80
3298;DHT22;1661;53.572;10.174;2024-03-25T12:09:10;10.50;64.60
3298;DHT22;1661;53.572;10.174;2024-03-25T12:11:55;10.60;63.60
3298;DHT22;1661;53.572;10.174;2024-03-25T12:14:21;11.00;63.00
3298;DHT22;1661;53.572;10.174;2024-03-25T12:16:48;11.30;64.60
3298;DHT22;1661;53.572;10.174;2024-03-25T12:19:16;11.50;60.80
3298;DHT22;1661;53.572;10.174;2024-03-25T12:21:42;11.60;61.10
3298;DHT22;1661;53.572;10.174;2024-03-25T12:24:08;11.90;61.60
3298;DHT22;1661;53.572;10.174;2024-03-25T12:26:34;12.10;61.20
3298;DHT22;1661;53.572;10.174;2024-03-25T12:29:00;12.40;62.40
3298;DHT22;1661;53.572;10.174;2024-03-25T12:31:26;12.60;60.00
3298;DHT22;1661;53.572;10.174;2024-03-25T12:33:53;12.70;60.10
3298;DHT22;1661;53.572;10.174;2024-03-25T12:36:20;12.70;59.60
3298;DHT22;1661;53.572;10.174;2024-03-25T12:38:54;12.70;60.60
3298;DHT22;1661;53.572;10.174;2024-03-25T12:41:22;12.70;58.50
3298;DHT22;1661;53.572;10.174;2024-03-25T12:43:50;12.60;60.00
3298;DHT22;1661;53.572;10.174;2024-03-25T12:46:16;12.60;60.50
3298;DHT22;1661;53.572;10.174;2024-03-25T12:48:42;12.40;58.80
3298;DHT22;1661;53.572;10.174;2024-03-25T12:51:13;12.30;62.50
3298;DHT22;1661;53.572;10.174;2024-03-25T12:53:39;12.30;60.80
3298;DHT22;1661;53.572;10.174;2024-03-25T12:56:05;12.40;60.60
3298;DHT22;1661;53.572;10.174;2024-03-25T12:58:31;12.20;62.30
3298;DHT22;1661;53.572;10.174;2024-03-25T13:00:57;12.20;61.90
3298;DHT22;1661;53.572;10.174;2024-03-25T13:03:23;12.20;60.80
3298;DHT22;1661;53.572;10.174;2024-03-25T13:05:49;12.20;61.50
3298;DHT22;1661;53.572;10.174;2024-03-25T13:08:16;12.10;59.80
3298;DHT22;1661;53.572;10.174;2024-03-25T13:10:42;12.10;60.00
3298;DHT22;1661;53.572;10.174;2024-03-25T13:13:08;12.10;60.20
3298;DHT22;1661;53.572;10.174;2024-03-25T13:15:34;11.90;61.30
3298;DHT22;1661;53.572;10.174;2024-03-25T13:18:00;12.20;63.50
3298;DHT22;1661;53.572;10.174;2024-03-25T13:20:26;12.40;60.40
3298;DHT22;1661;53.572;10.174;2024-03-25T13:22:54;12.60;61.50
3298;DHT22;1661;53.572;10.174;2024-03-25T13:25:22;12.90;62.10
3298;DHT22;1661;53.572;10.174;2024-03-25T13:27:48;13.30;59.90
3298;DHT22;1661;53.572;10.174;2024-03-25T13:30:14;13.40;59.10
3298;DHT22;1661;53.572;10.174;2024-03-25T13:32:40;13.50;57.50
3298;DHT22;1661;53.572;10.174;2024-03-25T13:35:06;13.70;56.80
3298;DHT22;1661;53.572;10.174;2024-03-25T13:37:32;13.80;57.30
3298;DHT22;1661;53.572;10.174;2024-03-25T13:39:58;13.70;56.30
3298;DHT22;1661;53.572;10.174;2024-03-25T13:42:25;13.50;55.90
3298;DHT22;1661;53.572;10.174;2024-03-25T13:44:51;13.30;57.60
3298;DHT22;1661;53.572;10.174;2024-03-25T13:47:17;13.10;57.00
3298;DHT22;1661;53.572;10.174;2024-03-25T13:49:43;13.00;58.70
3298;DHT22;1661;53.572;10.174;2024-03-25T13:52:09;12.90;61.60
3298;DHT22;1661;53.572;10.174;2024-03-25T13:54:35;12.50;59.60
3298;DHT22;1661;53.572;10.174;2024-03-25T13:57:00;12.30;62.20
3298;DHT22;1661;53.572;10.174;2024-03-25T13:59:28;12.20;63.00
3298;DHT22;1661;53.572;10.174;2024-03-25T14:01:53;12.00;63.00
3298;DHT22;1661;53.572;10.174;2024-03-25T14:04:19;12.00;64.00
3298;DHT22;1661;53.572;10.174;2024-03-25T14:06:45;11.80;66.40
3298;DHT22;1661;53.572;10.174;2024-03-25T14:09:23;11.70;64.20
3298;DHT22;1661;53.572;10.174;2024-03-25T14:11:49;11.90;68.30
3298;DHT22;1661;53.572;10.174;2024-03-25T14:14:14;12.20;67.30
3298;DHT22;1661;53.572;10.174;2024-03-25T14:16:42;12.50;65.80
3298;DHT22;1661;53.572;10.174;2024-03-25T14:19:08;12.80;64.90
3298;DHT22;1661;53.572;10.174;2024-03-25T14:21:33;13.00;62.60
3298;DHT22;1661;53.572;10.174;2024-03-25T14:23:59;13.00;60.90
3298;DHT22;1661;53.572;10.174;2024-03-25T14:26:25;13.10;62.30
3298;DHT22;1661;53.572;10.174;2024-03-25T14:28:51;13.30;60.80
3298;DHT22;1661;53.572;10.174;2024-03-25T14:31:17;13.50;60.30
3298;DHT22;1661;53.572;10.174;2024-03-25T14:33:44;13.70;57.20
3298;DHT22;1661;53.572;10.174;2024-03-25T14:36:10;13.70;56.10
3298;DHT22;1661;53.572;10.174;2024-03-25T14:38:36;13.90;58.40
3298;DHT22;1661;53.572;10.174;2024-03-25T14:41:02;13.90;57.50
3298;DHT22;1661;53.572;10.174;2024-03-25T14:43:28;13.80;57.70
3298;DHT22;1661;53.572;10.174;2024-03-25T14:45:53;13.70;57.60
3298;DHT22;1661;53.572;10.174;2024-03-25T14:48:19;13.60;59.50
3298;DHT22;1661;53.572;10.174;2024-03-25T14:50:46;13.50;60.10
3298;DHT22;1661;53.572;10.174;2024-03-25T14:53:12;13.40;58.80
3298;DHT22;1661;53.572;10.174;2024-03-25T14:55:38;13.20;58.80
3298;DHT22;1661;53.572;10.174;2024-03-25T14:58:04;13.10;59.20
3298;DHT22;1661;53.572;10.174;2024-03-25T15:00:30;13.00;59.50
3298;DHT22;1661;53.572;10.174;2024-03-25T15:02:56;13.00;60.30
3298;DHT22;1661;53.572;10.174;2024-03-25T15:05:21;13.00;60.70
3298;DHT22;1661;53.572;10.174;2024-03-25T15:07:49;12.90;62.40
3298;DHT22;1661;53.572;10.174;2024-03-25T15:10:15;12.90;62.10
3298;DHT22;1661;53.572;10.174;2024-03-25T15:12:40;13.00;61.10
3298;DHT22;1661;53.572;10.174;2024-03-25T15:15:07;13.20;59.80
3298;DHT22;1661;53.572;10.174;2024-03-25T15:17:34;13.30;59.50
3298;DHT22;1661;53.572;10.174;2024-03-25T15:20:00;13.60;60.50
3298;DHT22;1661;53.572;10.174;2024-03-25T15:22:26;13.80;60.30
3298;DHT22;1661;53.572;10.174;2024-03-25T15:24:53;14.10;56.90
3298;DHT22;1661;53.572;10.174;2024-03-25T15:27:19;14.10;55.00
3298;DHT22;1661;53.572;10.174;2024-03-25T15:29:45;14.20;57.00
3298;DHT22;1661;53.572;10.174;2024-03-25T15:32:11;14.20;55.30
3298;DHT22;1661;53.572;10.174;2024-03-25T15:34:37;14.40;54.70
3298;DHT22;1661;53.572;10.174;2024-03-25T15:37:03;14.50;53.50
3298;DHT22;1661;53.572;10.174;2024-03-25T15:39:29;14.60;53.20
3298;DHT22;1661;53.572;10.174;2024-03-25T15:41:56;14.60;53.10
3298;DHT22;1661;53.572;10.174;2024-03-25T15:44:23;14.70;52.90
3298;DHT22;1661;53.572;10.174;2024-03-25T15:46:49;14.70;52.00
3298;DHT22;1661;53.572;10.174;2024-03-25T15:49:14;14.70;51.00
3298;DHT22;1661;53.572;10.174;2024-03-25T15:51:40;14.70;52.20
3298;DHT22;1661;53.572;10.174;2024-03-25T15:54:06;14.70;52.80